MDT,Max TemperatureF,Mean TemperatureF,Min TemperatureF,Max Dew PointF,MeanDew PointF,Min DewpointF,Max Humidity, Mean Humidity, Min Humidity, Max Sea Level PressureIn, Mean Sea Level PressureIn, Min Sea Level PressureIn, Max VisibilityMiles, Mean VisibilityMiles, Min VisibilityMiles, Max Wind SpeedMPH, Mean Wind SpeedMPH, Max Gust SpeedMPH,PrecipitationIn, CloudCover, Events, WindDirDegrees
2011-10-1,80,66,51,42,40,37,59,42,25,30.19,30.02,29.94,10,10,10,26,10,35,T,1,,202
2011-10-2,81,64,47,43,39,36,71,48,24,30.24,30.04,29.97,10,10,10,17,6,23,0.00,0,,188
2011-10-3,79,64,48,48,42,36,61,42,23,30.18,29.97,29.85,10,10,10,23,8,31,0.00,2,Rain,188
2011-10-4,68,57,46,52,46,40,93,71,48,30.04,29.88,29.75,10,10,10,18,7,23,0.01,3,Rain-Thunderstorm,239
2011-10-5,57,52,47,43,39,33,82,63,43,29.78,29.65,29.52,10,9,2,35,19,52,0.04,5,Rain,201
2011-10-6,48,41,33,39,33,25,100,70,39,29.92,29.71,29.52,10,9,2,20,9,28,0.14,6,Rain-Snow,214
2011-10-7,50,38,25,31,26,19,92,62,31,30.09,30.02,29.93,10,10,10,10,3,20,0.00,2,,8
2011-10-8,54,46,38,39,35,31,100,72,44,30.18,30.12,30.04,10,10,6,17,7,24,0.02,7,Rain,7
2011-10-9,61,44,27,34,30,26,92,62,32,30.17,30.09,30.00,10,10,10,9,2,13,0.00,0,,144
2011-10-10,66,49,31,34,31,27,82,56,29,30.08,29.97,29.89,10,10,10,18,7,25,0.00,1,,203
2011-10-11,71,53,35,39,35,30,82,55,28,30.09,29.98,29.90,10,10,10,21,6,26,0.00,0,,181
2011-10-12,72,54,35,38,33,28,85,53,20,30.27,30.13,30.02,10,10,9,13,5,16,0.00,0,,26
2011-10-13,79,56,32,33,29,24,76,46,16,30.17,30.08,29.96,10,10,10,9,2,13,0.00,0,,139
2011-10-14,81,59,37,38,32,28,76,46,16,30.18,30.00,29.93,10,10,9,12,2,15,0.00,0,,184
2011-10-15,82,62,41,34,29,25,58,36,13,30.16,29.97,29.90,10,10,10,21,7,25,0.00,0,,190
2011-10-16,78,59,39,33,30,26,65,41,16,30.16,30.00,29.93,10,10,10,20,7,26,0.00,0,,199
2011-10-17,65,50,35,40,29,21,79,50,20,30.30,30.19,29.98,10,10,10,18,7,25,0.00,0,,13
2011-10-18,68,49,29,29,25,21,72,47,22,30.36,30.27,30.17,10,10,10,10,2,14,0.00,0,,33
2011-10-19,75,51,27,29,24,20,78,46,14,30.15,30.08,29.95,10,10,9,16,5,25,0.00,0,,187
2011-10-20,73,52,31,30,26,23,70,43,15,30.16,30.06,29.98,10,10,10,12,3,16,0.00,0,,67
2011-10-21,74,52,30,31,25,21,72,43,14,30.27,30.14,30.08,10,10,10,10,2,15,0.00,0,,197
2011-10-22,73,53,32,28,26,23,64,40,16,30.29,30.20,30.13,10,10,10,14,3,17,0.00,0,,15
2011-10-23,73,52,30,28,26,23,72,45,17,30.31,30.16,30.06,10,10,10,8,1,14,0.00,0,,147
2011-10-24,72,55,38,29,26,24,59,38,17,30.14,30.00,29.92,10,10,10,23,8,31,0.00,0,,194
2011-10-25,65,57,48,40,35,28,54,42,29,30.08,29.93,29.79,10,9,3,23,10,29,T,7,Rain,292
2011-10-26,44,38,32,37,29,15,100,73,45,30.24,30.11,30.01,10,7,1,21,11,28,0.25,6,Rain-Snow,11
2011-10-27,52,36,19,23,19,15,84,56,28,30.27,30.22,30.14,10,10,10,9,4,20,0.00,0,,340
2011-10-28,57,39,21,28,22,18,92,57,22,30.35,30.27,30.20,10,10,10,8,2,9,0.00,0,,119
2011-10-29,66,46,25,28,23,16,85,50,15,30.25,30.20,30.12,10,10,10,7,2,10,0.00,0,,12
2011-10-30,65,45,25,29,26,22,88,55,22,30.33,30.24,30.17,10,10,10,8,3,12,T,0,Snow,104
2011-10-31,70,49,27,33,26,21,85,51,16,30.18,30.08,29.94,10,10,10,12,1,15,0.00,0,,189